Time;durP1;ratioP1;P1;durP2;ratioP2;P2;SDS_P1;SDS_P2;PMS_P1;PMS_P2;Temp;Humidity;BMP_temperature;BMP_pressure;BME280_temperature;BME280_humidity;BME280_pressure;Samples;Min_cycle;Max_cycle;Signal;HPM_P1;HPM_P2
2023/07/29 00:02:10;;;;;;;8.70;5.70;;;18.30;99.90;;;;;;5017515;28;20269;-80
2023/07/29 00:04:35;;;;;;;11.85;7.80;;;18.30;99.90;;;;;;5017080;28;20559;-80
2023/07/29 00:07:01;;;;;;;8.00;6.70;;;18.40;99.90;;;;;;5017149;28;20175;-80
2023/07/29 00:09:27;;;;;;;10.10;6.97;;;18.30;99.90;;;;;;5039067;28;20186;-80
2023/07/29 00:11:52;;;;;;;11.63;7.28;;;18.30;99.90;;;;;;5021186;28;20179;-80
2023/07/29 00:14:18;;;;;;;10.18;7.70;;;18.30;99.90;;;;;;5020946;28;20572;-80
2023/07/29 00:16:44;;;;;;;11.93;8.13;;;18.30;99.90;;;;;;5021090;28;20605;-80
2023/07/29 00:19:10;;;;;;;11.13;7.55;;;18.30;99.90;;;;;;5020542;28;20582;-80
2023/07/29 00:21:35;;;;;;;10.63;7.82;;;18.30;99.90;;;;;;5038941;28;20198;-80
2023/07/29 00:24:01;;;;;;;10.98;7.47;;;18.30;99.90;;;;;;5021920;28;20594;-81
2023/07/29 00:26:28;;;;;;;7.20;6.32;;;18.30;99.90;;;;;;5021689;28;20179;-81
2023/07/29 00:28:56;;;;;;;7.95;6.90;;;18.30;99.90;;;;;;5020957;28;20215;-80
2023/07/29 00:31:21;;;;;;;7.43;6.03;;;18.30;99.90;;;;;;5038403;28;20159;-80
2023/07/29 00:33:47;;;;;;;6.90;5.75;;;18.30;99.90;;;;;;5019979;28;20205;-80
2023/07/29 00:36:13;;;;;;;9.02;6.88;;;18.30;99.90;;;;;;5020460;28;20551;-80
2023/07/29 00:38:39;;;;;;;6.97;5.60;;;18.30;99.90;;;;;;5020224;28;20203;-80
2023/07/29 00:41:05;;;;;;;10.65;6.78;;;18.30;99.90;;;;;;5037848;28;20710;-80
2023/07/29 00:43:30;;;;;;;6.82;6.03;;;18.30;99.90;;;;;;5020046;28;20260;-80
2023/07/29 00:45:57;;;;;;;7.38;5.72;;;18.20;99.90;;;;;;5020394;28;20565;-80
2023/07/29 00:48:23;;;;;;;7.38;5.80;;;18.20;99.90;;;;;;5034813;28;20180;-80
2023/07/29 00:50:49;;;;;;;8.52;6.18;;;18.20;99.90;;;;;;5000422;28;20237;-80
2023/07/29 00:53:15;;;;;;;16.80;7.13;;;18.20;99.90;;;;;;5000396;28;20227;-80
2023/07/29 00:55:42;;;;;;;8.73;6.30;;;18.20;99.90;;;;;;5000311;28;20176;-80
2023/07/29 00:58:08;;;;;;;6.72;5.90;;;18.10;99.90;;;;;;5000348;28;20262;-79
2023/07/29 01:00:34;;;;;;;8.18;6.05;;;18.10;99.90;;;;;;5017740;28;20243;-80
2023/07/29 01:03:00;;;;;;;8.30;6.55;;;18.10;99.90;;;;;;4999821;28;20199;-80
2023/07/29 01:05:35;;;;;;;8.73;6.68;;;18.10;99.90;;;;;;5000087;28;20209;-80
2023/07/29 01:08:36;;;;;;;7.80;5.95;;;18.10;99.90;;;;;;5000210;28;20168;-80
2023/07/29 01:11:13;;;;;;;6.95;5.30;;;18.10;99.90;;;;;;5017958;28;20172;-80
2023/07/29 01:13:47;;;;;;;6.65;5.90;;;18.10;99.90;;;;;;5017869;28;20210;-80
2023/07/29 01:16:21;;;;;;;6.50;5.90;;;18.10;99.90;;;;;;5000451;28;20168;-80
2023/07/29 01:18:49;;;;;;;7.43;5.75;;;18.10;99.90;;;;;;5006797;28;20297;-79
2023/07/29 01:21:17;;;;;;;9.63;6.32;;;18.20;99.90;;;;;;5037842;28;20179;-79
2023/07/29 01:23:43;;;;;;;8.77;5.18;;;18.20;99.90;;;;;;5019973;28;20215;-80
2023/07/29 01:26:09;;;;;;;5.88;5.15;;;18.20;99.90;;;;;;5020024;28;20258;-80
2023/07/29 01:28:35;;;;;;;8.68;5.43;;;18.10;99.90;;;;;;5037552;28;20268;-80
2023/07/29 01:31:16;;;;;;;6.03;5.43;;;18.10;99.90;;;;;;5020045;28;20179;-80
2023/07/29 01:33:57;;;;;;;6.45;5.38;;;18.10;99.90;;;;;;5037445;28;20199;-80
2023/07/29 01:36:27;;;;;;;6.68;5.68;;;18.10;99.90;;;;;;5019928;28;20217;-80
2023/07/29 01:38:55;;;;;;;8.10;5.82;;;18.10;99.90;;;;;;5019412;28;20202;-80
2023/07/29 01:41:21;;;;;;;6.88;6.05;;;18.10;99.90;;;;;;5019699;28;20171;-80
2023/07/29 01:43:47;;;;;;;6.15;5.38;;;18.10;99.90;;;;;;5037521;28;20199;-80
2023/07/29 01:46:14;;;;;;;6.32;5.40;;;18.10;99.90;;;;;;5019710;28;20179;-80
2023/07/29 01:48:40;;;;;;;6.50;5.50;;;18.10;99.90;;;;;;5037022;28;20179;-80
2023/07/29 01:51:06;;;;;;;6.53;5.20;;;18.10;99.90;;;;;;5037076;28;20262;-80
2023/07/29 01:53:32;;;;;;;7.07;5.18;;;18.10;99.90;;;;;;5037234;28;20195;-79
2023/07/29 01:55:58;;;;;;;5.80;4.78;;;18.10;99.90;;;;;;5020375;28;20183;-79
2023/07/29 01:58:25;;;;;;;6.82;5.85;;;18.10;99.90;;;;;;5037366;28;20194;-80
2023/07/29 02:00:50;;;;;;;5.90;5.25;;;18.10;99.90;;;;;;5019290;28;20684;-80
2023/07/29 02:03:16;;;;;;;6.18;5.20;;;18.10;99.90;;;;;;5037150;28;20195;-80
2023/07/29 02:05:43;;;;;;;6.20;5.20;;;18.00;99.90;;;;;;5037570;28;20177;-80
2023/07/29 02:08:10;;;;;;;7.57;5.63;;;18.00;99.90;;;;;;5018837;28;20181;-79
2023/07/29 02:10:36;;;;;;;6.60;5.43;;;18.00;99.90;;;;;;5018507;28;20592;-79
2023/07/29 02:13:02;;;;;;;8.38;5.30;;;18.00;99.90;;;;;;5018266;28;20257;-79
2023/07/29 02:15:28;;;;;;;7.25;5.53;;;17.90;99.90;;;;;;5018183;28;20722;-79
2023/07/29 02:17:54;;;;;;;5.63;4.97;;;17.90;99.90;;;;;;5035843;28;20167;-80
2023/07/29 02:20:20;;;;;;;7.28;5.43;;;17.90;99.90;;;;;;5035518;28;20211;-80
2023/07/29 02:22:47;;;;;;;6.07;5.47;;;17.90;99.90;;;;;;5018064;28;20248;-80
2023/07/29 02:25:12;;;;;;;6.05;5.30;;;17.90;99.90;;;;;;5018059;28;20179;-80
2023/07/29 02:27:38;;;;;;;5.72;4.80;;;17.90;99.90;;;;;;5018107;28;20321;-80
2023/07/29 02:30:05;;;;;;;6.88;5.30;;;17.90;99.90;;;;;;5035539;28;20182;-80
2023/07/29 02:32:30;;;;;;;6.13;5.30;;;17.90;99.90;;;;;;5018714;28;20189;-80
2023/07/29 02:34:56;;;;;;;7.72;4.45;;;17.90;99.90;;;;;;5036759;28;20175;-80
2023/07/29 02:37:22;;;;;;;6.28;5.32;;;17.90;99.90;;;;;;5018433;28;20179;-80
2023/07/29 02:39:48;;;;;;;5.82;5.22;;;17.80;99.90;;;;;;5018516;28;20583;-80
2023/07/29 02:42:14;;;;;;;10.13;5.78;;;17.80;99.90;;;;;;5036981;28;20171;-79
2023/07/29 02:44:40;;;;;;;6.25;5.30;;;17.80;99.90;;;;;;5018717;28;20179;-79
2023/07/29 02:47:06;;;;;;;8.02;5.07;;;17.80;99.90;;;;;;5036285;28;20245;-80
2023/07/29 02:49:31;;;;;;;6.38;5.32;;;17.80;99.90;;;;;;5036213;28;20642;-80
2023/07/29 02:51:57;;;;;;;7.20;5.93;;;17.80;99.90;;;;;;5018731;28;20663;-80
2023/07/29 02:54:23;;;;;;;7.88;5.65;;;17.80;99.90;;;;;;5018863;28;20293;-80
2023/07/29 02:56:50;;;;;;;6.15;5.53;;;17.80;99.90;;;;;;5036654;28;20217;-80
2023/07/29 02:59:16;;;;;;;7.78;5.80;;;17.80;99.90;;;;;;5022137;28;20198;-80
2023/07/29 03:01:42;;;;;;;4.53;4.13;;;17.70;99.90;;;;;;5042477;28;20182;-80
2023/07/29 03:04:08;;;;;;;5.80;5.20;;;17.80;99.90;;;;;;5019052;28;20196;-80
2023/07/29 03:06:34;;;;;;;6.03;5.43;;;17.70;99.90;;;;;;5036121;28;20183;-80
2023/07/29 03:08:59;;;;;;;7.53;5.05;;;17.70;99.90;;;;;;5036888;28;20171;-80
2023/07/29 03:11:25;;;;;;;4.30;3.90;;;17.80;99.90;;;;;;5019959;28;20194;-80
2023/07/29 03:13:51;;;;;;;5.07;4.20;;;17.80;99.90;;;;;;5019318;28;20690;-80
2023/07/29 03:16:17;;;;;;;8.18;5.60;;;17.80;99.90;;;;;;5020517;28;20566;-80
2023/07/29 03:18:44;;;;;;;5.72;4.82;;;17.80;99.90;;;;;;5037090;28;20214;-80
2023/07/29 03:21:10;;;;;;;6.40;5.32;;;17.80;99.90;;;;;;5020718;28;20657;-80
2023/07/29 03:23:38;;;;;;;5.90;5.15;;;17.70;99.90;;;;;;5039560;28;20285;-80
2023/07/29 03:26:09;;;;;;;9.23;5.28;;;17.70;99.90;;;;;;5038750;28;20746;-80
2023/07/29 03:28:41;;;;;;;5.28;4.78;;;17.70;99.90;;;;;;5038085;28;20159;-79
2023/07/29 03:31:07;;;;;;;5.10;4.40;;;17.70;99.90;;;;;;5020567;28;20164;-80
2023/07/29 03:33:33;;;;;;;8.50;5.28;;;17.70;99.90;;;;;;5020462;28;20218;-80
2023/07/29 03:35:59;;;;;;;7.90;5.35;;;17.70;99.90;;;;;;5038360;28;20167;-80
2023/07/29 03:38:25;;;;;;;9.35;6.45;;;17.70;99.90;;;;;;5020940;28;20181;-80
2023/07/29 03:40:51;;;;;;;8.00;5.70;;;17.60;99.90;;;;;;5020741;28;20178;-80
2023/07/29 03:43:16;;;;;;;11.82;6.65;;;17.70;99.90;;;;;;5040504;28;20194;-80
2023/07/29 03:45:42;;;;;;;8.85;7.03;;;17.60;99.90;;;;;;5040081;28;20171;-80
2023/07/29 03:48:08;;;;;;;10.02;6.70;;;17.70;99.90;;;;;;5026643;28;20234;-79
2023/07/29 03:50:35;;;;;;;8.07;6.93;;;17.60;99.90;;;;;;5019811;28;20648;-79
2023/07/29 03:53:02;;;;;;;9.65;6.88;;;17.60;99.90;;;;;;5005018;28;20742;-81
2023/07/29 03:55:29;;;;;;;12.73;7.70;;;17.60;99.90;;;;;;5001990;28;20183;-81
2023/07/29 03:57:59;;;;;;;9.55;6.95;;;17.50;99.90;;;;;;5000906;28;20175;-80
2023/07/29 04:00:25;;;;;;;8.32;6.20;;;17.60;99.90;;;;;;5000996;28;20211;-80
2023/07/29 04:02:51;;;;;;;7.55;6.03;;;17.60;99.90;;;;;;5001267;28;20191;-80
2023/07/29 04:05:17;;;;;;;7.50;5.70;;;17.60;99.90;;;;;;5002298;28;20187;-80
2023/07/29 04:07:43;;;;;;;9.80;6.53;;;17.60;99.90;;;;;;5002681;28;20560;-80
2023/07/29 04:10:09;;;;;;;7.93;6.45;;;17.60;99.90;;;;;;5002571;28;20207;-80
2023/07/29 04:12:36;;;;;;;7.22;5.90;;;17.50;99.90;;;;;;5002867;28;20230;-80
2023/07/29 04:15:02;;;;;;;8.02;6.38;;;17.60;99.90;;;;;;5002903;28;20264;-80
2023/07/29 04:17:28;;;;;;;8.45;6.78;;;17.60;99.90;;;;;;5003853;28;20222;-80
2023/07/29 04:19:55;;;;;;;10.38;7.47;;;17.60;99.90;;;;;;5007147;28;20239;-80
2023/07/29 04:22:21;;;;;;;10.52;7.18;;;17.60;99.90;;;;;;5022353;28;20660;-81
2023/07/29 04:24:46;;;;;;;11.85;8.02;;;17.60;99.90;;;;;;5002903;28;20183;-80
2023/07/29 04:27:12;;;;;;;12.43;8.77;;;17.60;99.90;;;;;;5004980;28;20187;-80
2023/07/29 04:29:38;;;;;;;13.55;9.48;;;17.70;99.90;;;;;;5006584;28;20179;-81
2023/07/29 04:32:04;;;;;;;14.63;9.57;;;17.60;99.90;;;;;;5022304;28;20655;-80
2023/07/29 04:34:31;;;;;;;14.95;10.25;;;17.60;99.90;;;;;;5003370;28;20204;-80
2023/07/29 04:36:57;;;;;;;13.65;8.75;;;17.60;99.90;;;;;;5003096;28;20179;-80
2023/07/29 04:39:22;;;;;;;17.85;10.23;;;17.60;99.90;;;;;;5021728;28;20207;-80
2023/07/29 04:41:48;;;;;;;13.75;9.07;;;17.60;99.90;;;;;;5004224;28;20179;-80
2023/07/29 04:44:14;;;;;;;10.75;8.63;;;17.60;99.90;;;;;;5021892;28;20235;-80
2023/07/29 04:46:40;;;;;;;12.20;10.05;;;17.70;99.90;;;;;;5004952;28;20171;-80
2023/07/29 04:49:06;;;;;;;13.70;10.55;;;17.70;99.90;;;;;;5010086;28;20195;-81
2023/07/29 04:51:32;;;;;;;20.27;11.50;;;17.60;99.90;;;;;;5021468;28;20176;-80
2023/07/29 04:53:58;;;;;;;19.17;13.13;;;17.70;99.90;;;;;;5008154;28;20215;-80
2023/07/29 04:56:24;;;;;;;15.35;10.85;;;17.70;99.90;;;;;;5010112;28;20660;-80
2023/07/29 04:58:50;;;;;;;16.83;12.07;;;17.80;99.90;;;;;;5010013;28;20211;-80
2023/07/29 05:01:16;;;;;;;14.55;11.70;;;17.80;99.90;;;;;;5010592;28;20187;-80
2023/07/29 05:03:41;;;;;;;13.88;11.82;;;17.90;99.90;;;;;;5028509;28;20202;-81
2023/07/29 05:06:07;;;;;;;13.68;10.85;;;17.90;99.90;;;;;;5029840;28;20203;-80
2023/07/29 05:08:33;;;;;;;15.98;10.38;;;17.90;99.90;;;;;;5029303;28;20180;-80
2023/07/29 05:10:59;;;;;;;14.60;12.23;;;18.00;99.90;;;;;;5011526;28;20178;-80
2023/07/29 05:13:25;;;;;;;14.80;12.35;;;18.00;99.90;;;;;;5028650;28;20274;-80
2023/07/29 05:15:51;;;;;;;16.23;12.10;;;18.00;99.90;;;;;;5029713;28;20235;-79
2023/07/29 05:18:17;;;;;;;16.05;12.10;;;18.00;99.90;;;;;;5028122;28;20216;-80
2023/07/29 05:20:43;;;;;;;15.07;12.65;;;18.00;99.90;;;;;;5029022;28;20540;-80
2023/07/29 05:23:09;;;;;;;19.63;15.30;;;18.00;99.90;;;;;;5012626;28;20195;-80
2023/07/29 05:25:35;;;;;;;22.38;13.82;;;18.00;99.90;;;;;;5029790;28;20654;-80
2023/07/29 05:28:01;;;;;;;17.80;14.70;;;18.10;99.90;;;;;;5029899;28;20175;-80
2023/07/29 05:30:30;;;;;;;20.30;15.57;;;18.20;99.90;;;;;;5012293;28;20198;-79
2023/07/29 05:32:57;;;;;;;23.63;17.13;;;18.10;99.90;;;;;;5029970;28;20191;-80
2023/07/29 05:35:24;;;;;;;19.70;16.85;;;18.10;99.90;;;;;;5028761;28;20182;-79
2023/07/29 05:37:49;;;;;;;22.00;17.02;;;18.10;99.90;;;;;;5029566;28;20187;-80
2023/07/29 05:40:15;;;;;;;26.15;19.33;;;18.10;99.90;;;;;;5026725;28;20195;-77
2023/07/29 05:42:41;;;;;;;30.38;20.27;;;18.10;99.90;;;;;;5016235;28;20680;-78
2023/07/29 05:45:08;;;;;;;26.25;19.90;;;18.20;99.90;;;;;;5016266;28;20334;-77
2023/07/29 05:47:33;;;;;;;27.10;21.10;;;18.20;99.90;;;;;;4998330;28;20172;-77
2023/07/29 05:50:02;;;;;;;27.88;20.25;;;18.20;99.90;;;;;;5013977;28;20652;-78
2023/07/29 05:52:28;;;;;;;36.83;22.13;;;18.30;99.90;;;;;;5035538;28;20166;-78
2023/07/29 05:54:53;;;;;;;27.48;20.48;;;18.30;99.90;;;;;;5035848;28;20167;-77
2023/07/29 05:57:19;;;;;;;32.15;21.02;;;18.30;99.90;;;;;;5035560;28;20213;-78
2023/07/29 05:59:45;;;;;;;24.33;19.08;;;18.30;99.90;;;;;;5018049;28;20226;-77
2023/07/29 06:02:11;;;;;;;23.58;17.95;;;18.20;99.90;;;;;;5018161;28;20167;-77
2023/07/29 06:04:36;;;;;;;24.85;17.30;;;18.20;99.90;;;;;;5017396;28;20203;-77
2023/07/29 06:07:02;;;;;;;20.48;15.35;;;18.20;99.90;;;;;;5017625;28;20229;-78
2023/07/29 06:09:28;;;;;;;18.15;13.35;;;18.20;99.90;;;;;;5038215;28;20181;-79
2023/07/29 06:11:54;;;;;;;22.65;15.82;;;18.20;99.90;;;;;;5019665;28;20221;-79
2023/07/29 06:14:20;;;;;;;18.42;15.73;;;18.20;99.90;;;;;;5020499;28;20289;-78
2023/07/29 06:16:45;;;;;;;21.95;14.60;;;18.10;99.90;;;;;;5038808;28;20176;-79
2023/07/29 06:19:13;;;;;;;19.42;14.65;;;18.10;99.90;;;;;;5019876;28;20214;-79
2023/07/29 06:21:38;;;;;;;21.77;14.68;;;18.00;99.90;;;;;;5021251;28;20175;-76
2023/07/29 06:24:04;;;;;;;21.45;14.98;;;18.00;99.90;;;;;;5020221;28;20250;-78
2023/07/29 06:26:30;;;;;;;20.00;15.63;;;17.90;99.90;;;;;;5020690;28;20171;-78
2023/07/29 06:28:56;;;;;;;20.88;13.63;;;17.80;99.90;;;;;;5044902;28;20163;-78
2023/07/29 06:31:22;;;;;;;20.30;14.50;;;17.80;99.90;;;;;;5045243;28;20168;-79
2023/07/29 06:33:48;;;;;;;21.50;14.10;;;17.80;99.90;;;;;;5018888;28;20694;-78
2023/07/29 06:36:14;;;;;;;17.95;13.40;;;17.80;99.90;;;;;;5019230;28;20187;-78
2023/07/29 06:38:40;;;;;;;18.02;14.20;;;17.80;99.90;;;;;;5019359;28;20369;-79
2023/07/29 06:41:06;;;;;;;20.13;13.27;;;17.80;99.90;;;;;;5020080;28;20175;-79
2023/07/29 06:43:32;;;;;;;18.13;12.85;;;17.80;99.90;;;;;;5035992;28;20210;-77
2023/07/29 06:45:58;;;;;;;21.90;12.88;;;17.70;99.90;;;;;;5037565;28;20202;-78
2023/07/29 06:48:24;;;;;;;15.75;12.18;;;17.70;99.90;;;;;;5037214;28;20546;-79
2023/07/29 06:50:50;;;;;;;17.17;13.40;;;17.70;99.90;;;;;;5018703;28;20186;-79
2023/07/29 06:53:16;;;;;;;14.40;11.02;;;17.70;99.90;;;;;;5019144;28;20238;-78
2023/07/29 06:55:43;;;;;;;17.30;10.35;;;17.80;99.90;;;;;;5019302;28;20172;-78
2023/07/29 06:58:09;;;;;;;18.17;10.30;;;17.80;99.90;;;;;;5018850;28;20551;-79
2023/07/29 07:00:35;;;;;;;12.27;9.02;;;17.90;99.90;;;;;;5018519;28;20257;-80
2023/07/29 07:03:01;;;;;;;14.48;10.82;;;17.90;99.90;;;;;;5036798;28;20191;-79
2023/07/29 07:05:27;;;;;;;14.82;9.93;;;17.90;99.90;;;;;;5018964;28;20212;-79
2023/07/29 07:07:52;;;;;;;15.05;11.65;;;17.90;99.90;;;;;;5036344;28;20179;-79
2023/07/29 07:10:19;;;;;;;13.27;11.35;;;17.90;99.90;;;;;;5036130;28;20182;-77
2023/07/29 07:12:44;;;;;;;14.35;11.45;;;17.90;99.90;;;;;;5019512;28;20221;-79
2023/07/29 07:15:10;;;;;;;14.60;11.63;;;17.90;99.90;;;;;;5018364;28;20266;-78
2023/07/29 07:17:36;;;;;;;13.48;11.32;;;17.90;99.90;;;;;;5017770;28;20175;-78
2023/07/29 07:20:03;;;;;;;15.50;11.18;;;17.90;99.90;;;;;;5035418;28;20289;-78
2023/07/29 07:22:29;;;;;;;13.98;10.90;;;17.90;99.90;;;;;;5017468;28;20182;-78
2023/07/29 07:24:54;;;;;;;12.88;10.00;;;18.00;99.90;;;;;;5035478;28;20521;-79
2023/07/29 07:27:20;;;;;;;11.93;8.70;;;18.00;99.90;;;;;;5035200;28;20221;-78
2023/07/29 07:29:46;;;;;;;9.48;7.13;;;17.90;99.90;;;;;;5017088;28;20210;-79
2023/07/29 07:32:12;;;;;;;10.93;7.22;;;17.90;99.90;;;;;;5018368;28;20179;-78
2023/07/29 07:34:37;;;;;;;9.65;6.38;;;17.90;99.90;;;;;;5017568;28;20209;-78
2023/07/29 07:37:04;;;;;;;14.75;7.03;;;17.90;99.90;;;;;;5021291;28;20179;-79
2023/07/29 07:39:31;;;;;;;13.63;6.45;;;17.90;99.90;;;;;;5019212;28;20207;-79
2023/07/29 07:41:56;;;;;;;11.75;6.90;;;17.90;99.90;;;;;;5020238;28;20179;-79
2023/07/29 07:44:22;;;;;;;8.32;6.28;;;17.90;99.90;;;;;;5017587;28;20205;-78
2023/07/29 07:46:48;;;;;;;11.55;6.10;;;17.90;99.90;;;;;;5017513;28;20183;-79
2023/07/29 07:49:14;;;;;;;10.05;5.38;;;17.90;99.90;;;;;;5035094;28;20191;-79
2023/07/29 07:51:39;;;;;;;7.38;5.30;;;17.90;99.90;;;;;;5017587;28;20621;-79
2023/07/29 07:54:05;;;;;;;6.57;4.75;;;17.90;99.90;;;;;;5018579;28;20206;-78
2023/07/29 07:56:31;;;;;;;9.98;4.65;;;18.10;99.90;;;;;;5017997;28;20198;-81
2023/07/29 07:58:56;;;;;;;7.10;3.88;;;18.30;99.90;;;;;;5017087;28;20305;-80
2023/07/29 08:01:22;;;;;;;5.70;3.85;;;18.40;99.90;;;;;;5018422;28;20661;-80
2023/07/29 08:03:48;;;;;;;3.60;3.30;;;18.50;99.90;;;;;;5017668;28;20285;-80
2023/07/29 08:06:14;;;;;;;9.30;3.58;;;18.60;99.90;;;;;;5018067;28;20225;-81
2023/07/29 08:08:40;;;;;;;3.88;2.85;;;18.70;99.90;;;;;;5018014;28;20191;-80
2023/07/29 08:11:05;;;;;;;3.75;2.90;;;18.80;99.90;;;;;;5018574;28;20186;-80
2023/07/29 08:13:31;;;;;;;4.65;3.30;;;18.80;99.90;;;;;;5018409;28;20230;-80
2023/07/29 08:15:57;;;;;;;8.35;3.35;;;18.90;99.90;;;;;;5018186;28;20205;-80
2023/07/29 08:18:23;;;;;;;6.38;3.00;;;19.10;99.90;;;;;;5017988;28;20586;-80
2023/07/29 08:20:58;;;;;;;3.50;2.75;;;19.20;99.90;;;;;;5018943;28;20175;-80
2023/07/29 08:23:27;;;;;;;3.25;2.50;;;19.30;99.90;;;;;;5019381;28;20202;-80
2023/07/29 08:25:56;;;;;;;3.10;2.17;;;19.50;99.90;;;;;;5037295;28;20255;-80
2023/07/29 08:28:22;;;;;;;4.95;2.25;;;19.60;99.90;;;;;;5020911;28;20644;-79
2023/07/29 08:30:48;;;;;;;2.40;2.20;;;19.60;99.90;;;;;;5023505;28;20183;-79
2023/07/29 08:33:13;;;;;;;4.30;2.40;;;19.50;99.90;;;;;;5022451;28;20206;-79
2023/07/29 08:35:39;;;;;;;2.47;2.00;;;19.40;99.90;;;;;;5022782;28;20175;-79
2023/07/29 08:38:05;;;;;;;2.67;2.00;;;19.30;99.90;;;;;;5021462;28;20217;-79
2023/07/29 08:40:34;;;;;;;2.10;1.90;;;19.40;99.90;;;;;;5038923;28;20300;-79
2023/07/29 08:43:05;;;;;;;3.25;2.40;;;19.80;99.90;;;;;;5020882;28;20195;-80
2023/07/29 08:45:35;;;;;;;2.35;2.15;;;20.50;99.90;;;;;;5038479;28;20560;-79
2023/07/29 08:48:05;;;;;;;2.28;1.88;;;21.30;99.90;;;;;;5020728;28;20193;-79
2023/07/29 08:50:32;;;;;;;2.00;1.80;;;21.70;99.90;;;;;;5038796;28;20172;-78
2023/07/29 08:53:00;;;;;;;2.05;1.80;;;21.60;99.90;;;;;;5020557;28;20217;-79
2023/07/29 08:55:26;;;;;;;5.28;2.17;;;21.30;99.90;;;;;;5020033;28;20243;-78
2023/07/29 08:57:53;;;;;;;2.47;1.90;;;20.90;99.90;;;;;;5037909;28;20647;-78
2023/07/29 09:00:20;;;;;;;2.15;1.88;;;20.70;99.90;;;;;;5020345;28;20203;-76
2023/07/29 09:02:45;;;;;;;2.10;1.80;;;20.60;99.90;;;;;;5037632;28;20187;-77
2023/07/29 09:05:11;;;;;;;2.03;1.88;;;20.50;99.90;;;;;;5019518;28;20198;-76
2023/07/29 09:07:38;;;;;;;3.13;1.85;;;20.90;99.90;;;;;;5019830;28;20651;-77
2023/07/29 09:10:04;;;;;;;2.50;1.70;;;21.20;99.90;;;;;;5037237;28;20182;-76
2023/07/29 09:12:30;;;;;;;3.75;1.92;;;21.50;99.90;;;;;;5020463;28;20198;-76
2023/07/29 09:14:55;;;;;;;4.50;1.92;;;22.00;99.90;;;;;;5039270;28;20537;-77
2023/07/29 09:17:22;;;;;;;1.70;1.58;;;22.10;99.90;;;;;;5021279;28;20179;-76
2023/07/29 09:19:50;;;;;;;2.10;1.88;;;21.80;99.90;;;;;;5019058;28;20264;-76
2023/07/29 09:22:20;;;;;;;1.80;1.70;;;21.50;99.90;;;;;;5019052;28;20171;-76
2023/07/29 09:24:46;;;;;;;1.88;1.77;;;21.60;99.90;;;;;;5018831;28;20186;-77
2023/07/29 09:27:27;;;;;;;1.95;1.75;;;21.80;99.90;;;;;;5019222;28;20266;-76
2023/07/29 09:29:53;;;;;;;3.00;2.00;;;22.20;99.90;;;;;;5037071;28;20170;-76
2023/07/29 09:32:24;;;;;;;3.22;1.67;;;22.30;99.90;;;;;;5018748;28;20218;-77
2023/07/29 09:34:50;;;;;;;2.45;1.60;;;22.10;99.90;;;;;;5036445;28;20175;-76
2023/07/29 09:37:23;;;;;;;2.78;2.08;;;21.70;99.90;;;;;;5018609;28;20190;-76
2023/07/29 09:39:49;;;;;;;4.10;2.45;;;21.40;99.90;;;;;;5018372;28;20201;-76
2023/07/29 09:42:19;;;;;;;1.92;1.83;;;21.20;99.90;;;;;;5036552;28;20179;-77
2023/07/29 09:44:45;;;;;;;3.33;2.00;;;21.30;99.90;;;;;;5036742;28;20276;-77
2023/07/29 09:47:29;;;;;;;1.90;1.80;;;21.70;99.90;;;;;;5018651;28;20174;-76
2023/07/29 09:49:55;;;;;;;1.85;1.73;;;22.10;99.90;;;;;;5018017;28;20277;-76
2023/07/29 09:52:23;;;;;;;2.58;1.67;;;22.30;99.90;;;;;;5036531;28;20202;-76
2023/07/29 09:54:49;;;;;;;1.90;1.70;;;22.50;99.90;;;;;;5018813;28;20194;-77
2023/07/29 09:57:16;;;;;;;2.20;2.00;;;22.70;99.90;;;;;;5036520;28;20171;-77
2023/07/29 09:59:42;;;;;;;1.85;1.73;;;22.70;1.00;;;;;;5018318;28;20289;-76
2023/07/29 10:02:15;;;;;;;2.72;1.75;;;22.60;78.30;;;;;;5018618;28;20185;-77
2023/07/29 10:04:45;;;;;;;1.75;1.65;;;22.40;1.00;;;;;;5035721;28;20222;-77
2023/07/29 10:07:12;;;;;;;2.45;1.88;;;22.30;99.90;;;;;;5018399;28;20175;-76
2023/07/29 10:09:41;;;;;;;3.45;2.00;;;22.50;99.90;;;;;;5018346;28;20198;-77
2023/07/29 10:12:08;;;;;;;3.58;1.88;;;22.50;99.10;;;;;;5018618;28;20191;-77
2023/07/29 10:14:34;;;;;;;4.78;2.00;;;22.80;92.70;;;;;;5018110;28;20290;-77
2023/07/29 10:17:00;;;;;;;3.53;2.28;;;22.80;88.60;;;;;;5035548;28;20209;-77
2023/07/29 10:19:26;;;;;;;1.80;1.70;;;22.60;99.90;;;;;;5017585;28;20230;-77
2023/07/29 10:21:56;;;;;;;1.80;1.55;;;22.40;99.90;;;;;;5017431;28;20187;-77
2023/07/29 10:24:28;;;;;;;2.60;1.85;;;22.30;99.90;;;;;;5017862;28;20206;-77
2023/07/29 10:26:58;;;;;;;2.03;1.90;;;22.10;99.90;;;;;;5017608;28;20254;-77
2023/07/29 10:29:26;;;;;;;1.95;1.83;;;21.70;99.90;;;;;;5035494;28;20209;-76
2023/07/29 10:31:55;;;;;;;2.00;1.67;;;21.60;99.90;;;;;;5017760;28;20217;-77
2023/07/29 10:34:22;;;;;;;1.75;1.65;;;21.50;99.90;;;;;;5017419;28;20290;-77
2023/07/29 10:36:49;;;;;;;3.50;2.15;;;21.60;99.90;;;;;;5017692;28;20215;-76
2023/07/29 10:39:15;;;;;;;2.13;1.98;;;21.80;99.90;;;;;;5017191;28;20210;-77
2023/07/29 10:41:59;;;;;;;2.45;2.10;;;22.00;99.90;;;;;;5017764;28;20171;-78
2023/07/29 10:44:43;;;;;;;2.33;2.13;;;22.60;99.90;;;;;;5017339;28;20199;-76
2023/07/29 10:47:28;;;;;;;2.08;1.88;;;22.90;99.90;;;;;;5018703;28;20229;-77
2023/07/29 10:49:56;;;;;;;2.25;1.83;;;23.10;18.20;;;;;;5036482;28;20218;-77
2023/07/29 10:52:40;;;;;;;2.22;2.00;;;22.90;89.30;;;;;;5017027;28;20186;-77
2023/07/29 10:55:31;;;;;;;2.15;1.95;;;22.60;99.90;;;;;;5017280;28;20198;-77
2023/07/29 10:58:16;;;;;;;4.63;1.90;;;22.30;99.90;;;;;;5017228;28;20233;-77
2023/07/29 11:00:43;;;;;;;2.50;2.10;;;22.00;99.90;;;;;;5016895;28;20209;-76
2023/07/29 11:03:09;;;;;;;4.38;1.98;;;21.80;99.90;;;;;;5016828;28;20198;-76
2023/07/29 11:06:04;;;;;;;5.25;1.98;;;21.80;99.90;;;;;;5034518;28;20181;-76
2023/07/29 11:08:31;;;;;;;4.50;2.03;;;22.00;99.90;;;;;;5034244;28;20667;-76
2023/07/29 11:11:11;;;;;;;2.83;2.03;;;22.00;99.90;;;;;;5016601;28;20214;-76
2023/07/29 11:13:37;;;;;;;2.97;2.00;;;22.20;99.90;;;;;;5016626;28;20211;-77
2023/07/29 11:16:05;;;;;;;2.15;2.00;;;22.40;99.90;;;;;;5016745;28;20175;-77
2023/07/29 11:18:35;;;;;;;2.13;1.85;;;22.50;62.80;;;;;;5034573;28;20627;-77
2023/07/29 11:21:03;;;;;;;2.40;2.10;;;22.60;53.90;;;;;;5034182;28;20167;-77
2023/07/29 11:23:33;;;;;;;4.03;2.00;;;22.50;99.90;;;;;;5016592;28;20693;-77
2023/07/29 11:25:59;;;;;;;3.03;2.10;;;22.50;99.90;;;;;;5034499;28;20163;-77
2023/07/29 11:28:26;;;;;;;2.55;1.95;;;22.80;39.90;;;;;;5016636;28;20644;-77
2023/07/29 11:30:53;;;;;;;2.60;2.40;;;23.00;57.70;;;;;;5016520;28;20603;-76
2023/07/29 11:33:27;;;;;;;2.17;1.77;;;23.10;1.00;;;;;;5034055;28;20274;-77
2023/07/29 11:35:54;;;;;;;5.15;1.98;;;23.40;1.00;;;;;;5016476;28;20163;-77
2023/07/29 11:38:21;;;;;;;1.98;1.77;;;23.60;1.00;;;;;;5016958;28;20245;-76
2023/07/29 11:40:59;;;;;;;2.08;1.92;;;23.40;1.00;;;;;;5016422;28;20286;-75
2023/07/29 11:43:26;;;;;;;2.10;1.90;;;23.40;1.00;;;;;;5016956;28;20261;-79
2023/07/29 11:45:52;;;;;;;5.82;2.00;;;23.30;69.30;;;;;;5017911;28;20167;-74
2023/07/29 11:48:18;;;;;;;2.25;1.75;;;23.70;29.20;;;;;;5034562;28;20183;-75
2023/07/29 11:50:45;;;;;;;1.85;1.60;;;23.80;1.00;;;;;;5016102;28;20296;-75
2023/07/29 11:53:12;;;;;;;4.65;2.17;;;23.80;1.00;;;;;;5016549;28;20203;-76
2023/07/29 11:55:38;;;;;;;4.03;1.83;;;23.80;1.00;;;;;;5034122;28;20549;-76
2023/07/29 11:58:04;;;;;;;2.47;1.80;;;23.30;1.00;;;;;;5034115;28;20258;-76
2023/07/29 12:00:31;;;;;;;1.95;1.80;;;23.50;65.90;;;;;;5016509;28;20225;-77
2023/07/29 12:02:57;;;;;;;2.63;1.92;;;23.60;1.00;;;;;;5034802;28;20187;-78
2023/07/29 12:05:24;;;;;;;3.60;2.10;;;23.60;1.00;;;;;;5020332;28;20510;-78
2023/07/29 12:07:50;;;;;;;4.10;1.92;;;23.30;13.20;;;;;;5038087;28;20171;-78
2023/07/29 12:10:16;;;;;;;2.75;1.88;;;23.10;1.00;;;;;;5020412;28;20185;-78
2023/07/29 12:12:49;;;;;;;4.50;2.17;;;22.90;1.00;;;;;;5038342;28;20305;-78
2023/07/29 12:15:24;;;;;;;2.00;1.80;;;22.80;16.60;;;;;;5020796;28;20171;-76
2023/07/29 12:17:54;;;;;;;2.20;2.00;;;22.70;1.70;;;;;;5040007;28;20163;-76
2023/07/29 12:20:21;;;;;;;3.78;2.03;;;22.80;45.60;;;;;;5027345;28;20210;-78
2023/07/29 12:22:52;;;;;;;3.25;1.85;;;22.70;99.90;;;;;;5032339;28;20198;-77
2023/07/29 12:25:18;;;;;;;2.30;2.05;;;22.70;99.90;;;;;;5039612;28;20229;-79
2023/07/29 12:27:44;;;;;;;2.75;2.00;;;22.80;77.60;;;;;;5021222;28;20163;-79
2023/07/29 12:30:11;;;;;;;3.10;1.92;;;23.20;99.90;;;;;;5021674;28;20266;-80
2023/07/29 12:32:46;;;;;;;2.78;1.65;;;23.50;69.80;;;;;;5039614;28;20168;-80
2023/07/29 12:35:12;;;;;;;2.28;1.70;;;24.00;1.00;;;;;;5020726;28;20178;-78
2023/07/29 12:37:42;;;;;;;2.70;2.10;;;24.50;1.00;;;;;;5021044;28;20274;-78
2023/07/29 12:40:09;;;;;;;4.43;1.88;;;24.70;1.00;;;;;;5020903;28;20684;-77
2023/07/29 12:42:35;;;;;;;3.92;1.80;;;24.00;1.00;;;;;;5038707;28;20666;-78
2023/07/29 12:45:01;;;;;;;2.05;1.80;;;23.50;1.00;;;;;;5020907;28;20179;-78